x

Monte Cimone (16134) Weather Station

6:55am - Tue 12th Dec 2017 All times are CET. 1 hours from GMT.

  • Wind
    14mph, 46mph gusts
  • Air Temp 30°f
  • Sea Pressure 1002mb
  • Monte Cimone
  • Monte Cimone

More Historic Weather Station data

Upgrade to MSW Pro to gain access to the past 30 days of data for over 8000 Wavebouys and Weather Stations around the globe.

Join

Comparision Forecast

View Surf forecast
   
Tue 12/12 6:55am 14 46 mph 1002mb 30f
5:55am 18
mph
1001mb 30f
4:55am 14 41 mph 1001mb 30f
3:55am 14 39 mph 1001mb 30f
2:55am 12 37 mph 1001mb 32f
1:55am 15 44 mph 1000mb 32f
12:55am 23 56 mph 998mb 32f
Mon 12/11 11:55pm 35 88 mph 997mb 32f
10:55pm 41 80 mph 995mb 32f
9:55pm 66 97 mph 992mb 32f
8:55pm 59 92 mph 993mb 32f
7:55pm 59 90 mph 992mb 32f
6:55pm 39 80 mph 992mb 32f
5:55pm 21 68 mph 993mb 32f
4:55pm 31 84 mph 992mb 32f
3:55pm 27 75 mph 991mb 32f
2:55pm 23 61 mph 990mb 32f
1:55pm 21 60 mph 990mb 32f
12:55pm 23 63 mph 992mb 32f
11:55am 22 52 mph 992mb 32f
10:55am 20 48 mph 994mb 34f
9:55am 17 52 mph 994mb 34f
8:55am 17 46 mph 995mb 34f
7:55am 15 53 mph 996mb 34f
6:55am 9 22 mph 998mb 34f
5:55am 12
mph
997mb 34f
4:55am 15 27 mph 998mb 34f
3:55am 17 29 mph 999mb 30f
2:55am 17 29 mph 999mb 30f
1:55am 29 40 mph 998mb 32f
12:55am 27 38 mph 998mb 32f
Sun 12/10 11:55pm 25 60 mph 998mb 32f
10:55pm 17 29 mph 998mb 32f
9:55pm 32 71 mph 998mb 30f
8:55pm 24 70 mph 998mb 30f
7:55pm 20 48 mph 1000mb 30f
6:55pm 15 45 mph 1000mb 30f
5:55pm 14 25 mph 999mb 28f
4:55pm 14 43 mph 999mb 27f
3:55pm 14 29 mph 999mb 27f
2:55pm 14 53 mph 999mb 23f
1:55pm 14 28 mph 1000mb 23f
12:55pm 23 46 mph 1001mb 25f
11:55am 23 52 mph 1002mb 25f
10:55am 17 59 mph 1002mb 23f
9:55am 17 52 mph 1002mb 21f
8:55am 17 35 mph 1002mb 19f
7:55am 17 35 mph 1002mb 21f
Sat 12/09 6:55pm 18 30 mph 1007mb 12f
1:55am 36 47 mph 1002mb 21f
12:55am 17 32 mph 1003mb 28f
Fri 12/08 11:55pm 7 22 mph 1004mb 28f
10:55pm 7 18 mph 1004mb 27f
9:55pm 12 41 mph 1004mb 28f
8:55pm 13 44 mph 1004mb 30f
7:55pm 12 32 mph 1004mb 30f
6:55pm 20 61 mph 1004mb 32f
5:55pm 18 54 mph 1005mb 32f
4:55pm 25 53 mph 1005mb 32f
3:55pm 18 55 mph 1007mb 32f
2:55pm 21 47 mph 1008mb 32f
1:55pm 17 62 mph 1009mb 32f
12:55pm 14 38 mph 1010mb 32f
11:55am 14 52 mph 1010mb 32f
10:55am 14 39 mph 1013mb 32f
9:55am 21 60 mph 1013mb 32f
8:55am 14 43 mph 1013mb 30f
7:55am 15 41 mph 1014mb 32f